createdAt,value
2023-04-02T00:00:11.464Z,15.15
2023-04-02T00:02:55.318Z,14.99
2023-04-02T00:05:34.786Z,15.07
2023-04-02T00:08:10.545Z,15.03
2023-04-02T00:10:49.884Z,14.89
2023-04-02T00:13:17.495Z,14.70
2023-04-02T00:15:49.671Z,14.69
2023-04-02T00:18:20.353Z,14.75
2023-04-02T00:21:03.983Z,14.84
2023-04-02T00:23:31.707Z,14.90
2023-04-02T00:25:59.620Z,14.99
2023-04-02T00:28:27.728Z,14.90
2023-04-02T00:31:00.036Z,15.14
2023-04-02T00:33:31.821Z,15.26
2023-04-02T00:36:00.494Z,15.16
2023-04-02T00:38:32.209Z,15.44
2023-04-02T00:41:03.367Z,15.38
2023-04-02T00:43:36.055Z,15.85
2023-04-02T00:46:14.429Z,15.00
2023-04-02T00:49:14.647Z,15.37
2023-04-02T00:51:49.686Z,15.12
2023-04-02T00:54:22.840Z,15.25
2023-04-02T00:56:55.179Z,15.53
2023-04-02T00:59:35.992Z,15.35
2023-04-02T01:02:17.573Z,15.56
2023-04-02T01:04:55.021Z,15.52
2023-04-02T01:07:55.418Z,15.17
2023-04-02T01:10:29.295Z,15.32
2023-04-02T01:13:05.971Z,15.44
2023-04-02T01:15:40.696Z,15.23
2023-04-02T01:18:18.778Z,15.28
2023-04-02T01:20:59.913Z,15.15
2023-04-02T01:23:34.905Z,15.10
2023-04-02T01:26:27.682Z,15.08
2023-04-02T01:29:09.435Z,15.02
2023-04-02T01:31:39.070Z,14.58
2023-04-02T01:34:12.499Z,14.61
2023-04-02T01:36:59.166Z,14.71
2023-04-02T01:39:40.227Z,14.49
2023-04-02T01:42:27.367Z,14.32
2023-04-02T01:45:03.195Z,14.52
2023-04-02T01:47:33.425Z,14.38
2023-04-02T01:50:24.701Z,14.32
2023-04-02T01:52:57.249Z,14.32
2023-04-02T01:55:31.472Z,14.65
2023-04-02T01:58:02.083Z,14.83
2023-04-02T02:00:31.303Z,15.10
2023-04-02T02:03:02.587Z,14.70
2023-04-02T02:05:30.994Z,14.43
2023-04-02T02:08:01.521Z,14.27
2023-04-02T02:10:36.677Z,14.02
2023-04-02T02:13:04.686Z,14.22
2023-04-02T02:15:34.528Z,14.33
2023-04-02T02:18:07.256Z,14.46
2023-04-02T02:20:36.535Z,14.20
2023-04-02T02:23:05.578Z,14.39
2023-04-02T02:25:37.607Z,14.40
2023-04-02T02:28:14.215Z,14.33
2023-04-02T02:30:53.981Z,14.47
2023-04-02T02:33:34.463Z,14.26
2023-04-02T02:36:41.703Z,14.28
2023-04-02T02:39:22.322Z,13.98
2023-04-02T02:41:56.295Z,13.59
2023-04-02T02:44:43.674Z,13.80
2023-04-02T02:47:16.780Z,13.55
2023-04-02T02:50:10.548Z,13.36
2023-04-02T02:52:39.643Z,13.58
2023-04-02T02:55:17.556Z,14.35
2023-04-02T02:58:27.589Z,14.05
2023-04-02T03:01:09.535Z,13.67
2023-04-02T03:03:40.780Z,13.84
2023-04-02T03:06:14.313Z,13.79
2023-04-02T03:08:57.989Z,13.88
2023-04-02T03:11:57.319Z,14.04
2023-04-02T03:14:38.320Z,14.29
2023-04-02T03:17:17.998Z,15.09
2023-04-02T03:19:58.457Z,15.18
2023-04-02T03:22:36.067Z,14.81
2023-04-02T03:25:35.048Z,14.49
2023-04-02T03:28:06.382Z,14.57
2023-04-02T03:30:50.047Z,14.65
2023-04-02T03:33:35.956Z,14.56
2023-04-02T03:36:24.202Z,14.22
2023-04-02T03:39:14.737Z,14.03
2023-04-02T03:42:14.373Z,13.85
2023-04-02T03:44:52.576Z,13.83
2023-04-02T03:47:20.902Z,13.95
2023-04-02T03:50:11.846Z,14.09
2023-04-02T03:52:41.069Z,13.99
2023-04-02T03:55:17.671Z,14.07
2023-04-02T03:58:04.140Z,13.81
2023-04-02T04:00:42.559Z,13.74
2023-04-02T04:03:18.380Z,13.71
2023-04-02T04:05:52.353Z,13.83
2023-04-02T04:08:26.851Z,13.92
2023-04-02T04:10:58.558Z,13.90
2023-04-02T04:13:37.465Z,14.29
2023-04-02T04:16:11.940Z,14.06
2023-04-02T04:18:57.615Z,13.64
2023-04-02T04:21:31.442Z,13.91
2023-04-02T04:24:16.600Z,14.00
2023-04-02T04:26:53.676Z,13.55
2023-04-02T04:29:49.313Z,13.50
2023-04-02T04:32:27.618Z,14.15
2023-04-02T04:35:17.678Z,14.39
2023-04-02T04:37:52.929Z,14.64
2023-04-02T04:40:31.370Z,14.78
2023-04-02T04:43:16.754Z,14.45
2023-04-02T04:45:51.885Z,14.39
2023-04-02T04:48:49.898Z,14.35
2023-04-02T04:51:24.796Z,14.41
2023-04-02T04:53:55.952Z,14.33
2023-04-02T04:56:30.563Z,13.46
2023-04-02T04:59:23.602Z,13.19
2023-04-02T05:02:17.780Z,13.65
2023-04-02T05:04:51.019Z,13.48
2023-04-02T05:07:33.082Z,13.31
2023-04-02T05:10:25.025Z,13.56
2023-04-02T05:13:21.850Z,13.70
2023-04-02T05:16:16.933Z,13.83
2023-04-02T05:19:01.537Z,14.37
2023-04-02T05:21:52.643Z,14.29
2023-04-02T05:25:07.550Z,14.34
2023-04-02T05:28:18.512Z,14.04
2023-04-02T05:30:56.589Z,14.14
2023-04-02T05:33:31.340Z,13.87
2023-04-02T05:36:09.742Z,13.73
2023-04-02T05:38:48.969Z,13.72
2023-04-02T05:41:38.416Z,13.92
2023-04-02T05:44:14.996Z,13.76
2023-04-02T05:46:55.737Z,13.41
2023-04-02T05:49:39.233Z,13.47
2023-04-02T05:52:24.117Z,13.33
2023-04-02T05:55:07.048Z,13.09
2023-04-02T05:57:46.766Z,13.05
2023-04-02T06:00:25.572Z,13.03
2023-04-02T06:03:14.199Z,13.17
2023-04-02T06:05:45.665Z,12.99
2023-04-02T06:08:22.915Z,13.15
2023-04-02T06:11:00.452Z,13.29
2023-04-02T06:13:29.508Z,13.46
2023-04-02T06:16:07.694Z,13.52
2023-04-02T06:18:37.389Z,13.75
2023-04-02T06:24:08.899Z,13.82
2023-04-02T06:26:45.029Z,13.68
2023-04-02T06:29:20.133Z,13.67
2023-04-02T06:31:57.566Z,13.60
2023-04-02T06:34:29.994Z,13.52
2023-04-02T06:37:22.675Z,13.75
2023-04-02T06:39:57.677Z,13.73
2023-04-02T06:42:34.856Z,13.99
2023-04-02T06:45:35.553Z,13.80
2023-04-02T06:48:37.369Z,13.87
2023-04-02T06:51:11.927Z,14.37
2023-04-02T06:53:47.202Z,14.39
2023-04-02T06:56:44.710Z,14.39
2023-04-02T06:59:18.995Z,14.24
2023-04-02T07:01:49.811Z,14.30
2023-04-02T07:04:21.382Z,14.43
2023-04-02T07:06:54.482Z,14.18
2023-04-02T07:12:15.926Z,14.59
2023-04-02T07:14:48.091Z,14.18
2023-04-02T07:17:21.061Z,14.23
2023-04-02T07:19:55.569Z,14.42
2023-04-02T07:22:26.045Z,14.42
2023-04-02T07:25:02.584Z,14.58
2023-04-02T07:27:31.201Z,14.33
2023-04-02T07:29:59.053Z,14.25
2023-04-02T07:32:26.742Z,14.64
2023-04-02T07:34:54.600Z,14.57
2023-04-02T07:40:58.481Z,14.30
2023-04-02T07:43:26.701Z,14.42
2023-04-02T07:45:54.557Z,14.39
2023-04-02T07:48:22.444Z,14.44
2023-04-02T07:50:53.276Z,14.48
2023-04-02T07:53:30.221Z,14.49
2023-04-02T07:56:03.139Z,14.46
2023-04-02T07:58:37.464Z,14.25
2023-04-02T08:01:05.914Z,14.33
2023-04-02T08:03:33.891Z,14.34
2023-04-02T08:06:01.823Z,14.67
2023-04-02T08:08:29.722Z,14.70
2023-04-02T08:10:57.608Z,14.62
2023-04-02T08:13:27.435Z,14.96
2023-04-02T08:15:59.148Z,14.99
2023-04-02T08:18:27.246Z,14.85
2023-04-02T08:20:54.990Z,14.88
2023-04-02T08:23:24.005Z,14.89
2023-04-02T08:25:52.673Z,14.73
2023-04-02T08:28:38.075Z,14.99
2023-04-02T08:31:17.388Z,14.95
2023-04-02T08:33:53.612Z,14.50
2023-04-02T08:36:27.628Z,14.29
2023-04-02T08:38:55.219Z,14.12
2023-04-02T08:41:27.999Z,13.82
2023-04-02T08:44:21.925Z,13.45
2023-04-02T08:46:57.401Z,13.16
2023-04-02T08:49:43.280Z,13.38
2023-04-02T08:52:28.809Z,13.12
2023-04-02T08:54:58.108Z,13.26
2023-04-02T08:57:41.991Z,13.23
2023-04-02T09:00:15.967Z,13.45
2023-04-02T09:02:52.115Z,13.50
2023-04-02T09:05:31.600Z,13.28
2023-04-02T09:08:02.351Z,13.23
2023-04-02T09:10:42.679Z,13.49
2023-04-02T09:13:22.805Z,13.40
2023-04-02T09:15:56.532Z,13.39
2023-04-02T09:18:24.463Z,13.31
2023-04-02T09:20:52.070Z,13.32
2023-04-02T09:23:26.160Z,13.42
2023-04-02T09:26:03.584Z,13.31
2023-04-02T09:28:32.480Z,13.14
2023-04-02T09:31:19.814Z,13.13
2023-04-02T09:33:51.837Z,13.34
2023-04-02T09:36:34.457Z,13.45
2023-04-02T09:39:19.011Z,13.58
2023-04-02T09:41:55.810Z,13.89
2023-04-02T09:44:33.023Z,13.87
2023-04-02T09:47:04.104Z,14.31
2023-04-02T09:49:36.294Z,14.69
2023-04-02T09:52:26.333Z,14.66
2023-04-02T09:55:16.439Z,14.83
2023-04-02T09:57:44.505Z,14.50
2023-04-02T10:00:30.663Z,14.51
2023-04-02T10:03:25.743Z,14.60
2023-04-02T10:06:13.037Z,14.68
2023-04-02T10:08:43.489Z,14.26
2023-04-02T10:11:28.849Z,14.09
2023-04-02T10:14:15.266Z,14.17
2023-04-02T10:16:52.298Z,14.27
2023-04-02T10:19:42.773Z,14.62
2023-04-02T10:22:17.348Z,15.08
2023-04-02T10:24:45.641Z,15.66
2023-04-02T10:27:22.684Z,15.85
2023-04-02T10:30:11.687Z,16.37
2023-04-02T10:33:03.294Z,16.74
2023-04-02T10:35:49.213Z,16.95
2023-04-02T10:38:42.192Z,16.90
2023-04-02T10:41:25.178Z,16.55
2023-04-02T10:44:26.738Z,16.79
2023-04-02T10:47:17.690Z,16.75
2023-04-02T10:50:03.154Z,16.68
2023-04-02T10:52:39.978Z,16.68
2023-04-02T10:55:19.142Z,16.91
2023-04-02T10:57:47.553Z,17.51
2023-04-02T11:00:28.008Z,17.54
2023-04-02T11:03:09.476Z,17.47
2023-04-02T11:05:57.195Z,17.76
2023-04-02T11:08:27.438Z,18.20
2023-04-02T11:11:03.296Z,18.36
2023-04-02T11:13:55.617Z,18.68
2023-04-02T11:16:24.240Z,18.37
2023-04-02T11:19:17.437Z,17.67
2023-04-02T11:22:06.776Z,17.85
2023-04-02T11:24:43.570Z,18.04
2023-04-02T11:27:11.352Z,18.24
2023-04-02T11:29:45.431Z,18.00
2023-04-02T11:32:22.320Z,18.26
2023-04-02T11:35:03.024Z,18.10
2023-04-02T11:37:45.329Z,18.00
2023-04-02T11:40:15.663Z,18.05
2023-04-02T11:42:51.903Z,17.71
2023-04-02T11:45:28.630Z,16.62
2023-04-02T11:48:04.430Z,15.24
2023-04-02T11:50:33.944Z,14.97
2023-04-02T11:53:19.453Z,13.91
2023-04-02T11:56:07.259Z,13.40
2023-04-02T11:58:49.228Z,13.22
2023-04-02T12:01:30.262Z,13.09
2023-04-02T12:04:35.056Z,13.03
2023-04-02T12:07:14.119Z,12.96
2023-04-02T12:09:53.872Z,13.11
2023-04-02T12:12:24.717Z,13.28
2023-04-02T12:14:55.951Z,13.36
2023-04-02T12:17:36.372Z,13.24
2023-04-02T12:20:23.090Z,13.18
2023-04-02T12:22:53.691Z,13.16
2023-04-02T12:25:22.130Z,13.29
2023-04-02T12:28:15.816Z,13.22
2023-04-02T12:30:45.480Z,13.33
2023-04-02T12:33:22.505Z,13.59
2023-04-02T12:35:55.160Z,13.58
2023-04-02T12:38:34.333Z,13.82
2023-04-02T12:41:06.551Z,14.16
2023-04-02T12:43:39.742Z,14.19
2023-04-02T12:46:09.195Z,14.68
2023-04-02T12:48:40.601Z,14.46
2023-04-02T12:51:08.524Z,14.69
2023-04-02T12:53:40.260Z,15.06
2023-04-02T12:56:19.785Z,15.25
2023-04-02T12:59:00.225Z,15.27
2023-04-02T13:01:32.260Z,15.28
2023-04-02T13:04:03.757Z,15.86
2023-04-02T13:06:32.442Z,16.01
2023-04-02T13:09:28.457Z,16.00
2023-04-02T13:11:59.573Z,16.22
2023-04-02T13:14:28.202Z,16.41
2023-04-02T13:16:56.564Z,16.56
2023-04-02T13:19:27.729Z,16.17
2023-04-02T13:21:57.348Z,16.64
2023-04-02T13:24:30.605Z,16.40
2023-04-02T13:27:01.473Z,16.59
2023-04-02T13:29:42.059Z,16.37
2023-04-02T13:32:14.947Z,16.92
2023-04-02T13:34:47.044Z,16.77
2023-04-02T13:37:24.763Z,16.77
2023-04-02T13:39:53.895Z,17.19
2023-04-02T13:42:22.456Z,16.65
2023-04-02T13:44:50.381Z,17.03
2023-04-02T13:47:18.451Z,16.95
2023-04-02T13:49:46.212Z,16.79
2023-04-02T13:52:20.854Z,16.77
2023-04-02T13:54:58.631Z,16.88
2023-04-02T13:57:28.995Z,17.00
2023-04-02T13:59:57.485Z,16.72
2023-04-02T14:02:27.222Z,16.66
2023-04-02T14:05:17.600Z,16.62
2023-04-02T14:07:55.443Z,16.94
2023-04-02T14:10:54.570Z,17.08
2023-04-02T14:13:47.554Z,17.28
2023-04-02T14:16:26.634Z,17.67
2023-04-02T14:19:14.905Z,17.92
2023-04-02T14:22:07.305Z,17.65
2023-04-02T14:24:47.261Z,17.96
2023-04-02T14:27:33.752Z,18.23
2023-04-02T14:30:36.970Z,17.70
2023-04-02T14:33:09.966Z,17.88
2023-04-02T14:35:47.698Z,18.34
2023-04-02T14:38:56.835Z,18.26
2023-04-02T14:41:48.453Z,17.98
2023-04-02T14:44:33.016Z,18.45
2023-04-02T14:47:43.604Z,18.35
2023-04-02T14:50:28.085Z,18.80
2023-04-02T14:53:02.923Z,18.97
2023-04-02T14:55:43.172Z,18.69
2023-04-02T14:58:37.441Z,18.67
2023-04-02T15:01:14.237Z,18.61
2023-04-02T15:03:47.880Z,18.67
2023-04-02T15:06:23.763Z,18.51
2023-04-02T15:09:09.324Z,18.45
2023-04-02T15:11:55.353Z,18.19
2023-04-02T15:14:41.249Z,18.00
2023-04-02T15:17:12.900Z,17.92
2023-04-02T15:19:44.563Z,18.11
2023-04-02T15:22:18.385Z,17.85
2023-04-02T15:25:14.099Z,18.06
2023-04-02T15:27:56.171Z,17.89
2023-04-02T15:30:37.155Z,18.04
2023-04-02T15:33:41.341Z,18.14
2023-04-02T15:36:31.674Z,17.96
2023-04-02T15:39:08.224Z,18.10
2023-04-02T15:41:43.089Z,18.31
2023-04-02T15:44:17.594Z,18.14
2023-04-02T15:47:03.246Z,17.95
2023-04-02T15:49:46.884Z,18.24
2023-04-02T15:52:35.530Z,17.94
2023-04-02T15:55:38.536Z,17.94
2023-04-02T15:58:21.555Z,17.92
2023-04-02T16:01:23.899Z,18.08
2023-04-02T16:04:18.040Z,18.13
2023-04-02T16:07:14.994Z,18.17
2023-04-02T16:10:01.565Z,17.69
2023-04-02T16:12:29.569Z,17.45
2023-04-02T16:15:11.463Z,17.37
2023-04-02T16:17:48.050Z,17.63
2023-04-02T16:20:28.835Z,17.74
2023-04-02T16:23:02.848Z,17.31
2023-04-02T16:25:51.007Z,17.35
2023-04-02T16:31:32.144Z,17.27
2023-04-02T16:34:25.552Z,17.28
2023-04-02T16:36:56.687Z,17.63
2023-04-02T16:39:37.675Z,17.68
2023-04-02T16:42:27.185Z,17.49
2023-04-02T16:45:19.439Z,17.44
2023-04-02T16:47:54.251Z,17.06
2023-04-02T16:50:34.350Z,17.16
2023-04-02T16:53:20.172Z,17.02
2023-04-02T16:56:04.201Z,17.03
2023-04-02T16:58:59.523Z,16.90
2023-04-02T17:01:52.309Z,17.03
2023-04-02T17:04:53.202Z,16.68
2023-04-02T17:07:44.623Z,16.80
2023-04-02T17:10:35.168Z,16.84
2023-04-02T17:13:35.808Z,16.85
2023-04-02T17:16:27.795Z,16.75
2023-04-02T17:19:01.608Z,16.60
2023-04-02T17:21:31.468Z,16.64
2023-04-02T17:24:21.723Z,16.81
2023-04-02T17:26:58.741Z,16.83
2023-04-02T17:29:42.736Z,16.73
2023-04-02T17:32:28.150Z,16.66
2023-04-02T17:34:57.749Z,16.45
2023-04-02T17:38:03.128Z,16.40
2023-04-02T17:40:54.928Z,16.37
2023-04-02T17:43:53.231Z,16.40
2023-04-02T17:46:47.195Z,16.31
2023-04-02T17:49:33.916Z,16.32
2023-04-02T17:52:24.721Z,16.32
2023-04-02T17:58:13.589Z,16.27
2023-04-02T18:00:44.813Z,16.57
2023-04-02T18:03:51.065Z,16.67
2023-04-02T18:06:37.826Z,16.34
2023-04-02T18:09:32.819Z,16.28
2023-04-02T18:12:04.201Z,16.13
2023-04-02T18:15:04.350Z,15.96
2023-04-02T18:17:54.270Z,15.91
2023-04-02T18:20:43.747Z,15.93
2023-04-02T18:23:24.584Z,15.68
2023-04-02T18:26:42.632Z,15.68
2023-04-02T18:29:37.555Z,15.64
2023-04-02T18:32:27.899Z,15.70
2023-04-02T18:35:15.300Z,15.75
2023-04-02T18:37:42.979Z,15.74
2023-04-02T18:40:35.726Z,15.79
2023-04-02T18:43:12.629Z,15.87
2023-04-02T18:46:05.442Z,15.53
2023-04-02T18:49:00.210Z,15.62
2023-04-02T18:51:40.046Z,15.49
2023-04-02T18:54:21.636Z,15.70
2023-04-02T18:56:49.424Z,15.49
2023-04-02T18:59:37.800Z,15.81
2023-04-02T19:02:40.658Z,15.75
2023-04-02T19:05:37.962Z,15.62
2023-04-02T19:08:55.288Z,15.69
2023-04-02T19:11:32.657Z,15.61
2023-04-02T19:14:21.508Z,15.24
2023-04-02T19:17:02.928Z,15.24
2023-04-02T19:19:54.092Z,15.16
2023-04-02T19:23:06.368Z,15.45
2023-04-02T19:26:04.794Z,15.28
2023-04-02T19:28:57.670Z,15.06
2023-04-02T19:31:38.523Z,14.93
2023-04-02T19:34:24.257Z,14.85
2023-04-02T19:37:12.042Z,14.78
2023-04-02T19:40:05.146Z,14.85
2023-04-02T19:42:50.938Z,15.02
2023-04-02T19:45:45.476Z,14.99
2023-04-02T19:48:43.112Z,14.95
2023-04-02T19:51:12.430Z,15.13
2023-04-02T19:53:45.774Z,15.05
2023-04-02T19:56:14.172Z,15.40
2023-04-02T19:58:45.548Z,15.38
2023-04-02T20:01:19.409Z,14.98
2023-04-02T20:03:59.752Z,14.97
2023-04-02T20:06:30.777Z,14.97
2023-04-02T20:09:00.515Z,14.93
2023-04-02T20:11:28.930Z,14.89
2023-04-02T20:13:57.193Z,14.97
2023-04-02T20:16:27.563Z,15.12
2023-04-02T20:18:57.363Z,14.93
2023-04-02T20:21:28.276Z,14.58
2023-04-02T20:23:56.892Z,14.98
2023-04-02T20:26:33.054Z,14.47
2023-04-02T20:29:02.684Z,14.29
2023-04-02T20:31:38.333Z,14.15
2023-04-02T20:34:09.334Z,14.10
2023-04-02T20:36:40.046Z,14.43
2023-04-02T20:39:09.481Z,14.30
2023-04-02T20:41:39.731Z,14.52
2023-04-02T20:44:30.929Z,14.59
2023-04-02T20:47:03.979Z,14.36
2023-04-02T20:49:48.307Z,14.37
2023-04-02T20:52:20.272Z,14.35
2023-04-02T20:54:52.463Z,14.09
2023-04-02T20:57:30.985Z,14.61
2023-04-02T20:59:59.350Z,14.69
2023-04-02T21:02:29.691Z,14.35
2023-04-02T21:05:02.601Z,14.34
2023-04-02T21:07:30.639Z,14.38
2023-04-02T21:09:58.880Z,14.49
2023-04-02T21:12:27.796Z,14.42
2023-04-02T21:15:02.757Z,14.39
2023-04-02T21:17:36.589Z,14.38
2023-04-02T21:20:05.024Z,14.33
2023-04-02T21:22:32.953Z,14.50
2023-04-02T21:25:00.903Z,14.64
2023-04-02T21:27:28.564Z,14.60
2023-04-02T21:29:56.438Z,14.65
2023-04-02T21:32:24.207Z,14.73
2023-04-02T21:34:51.968Z,14.63
2023-04-02T21:37:22.177Z,14.60
2023-04-02T21:39:52.457Z,14.37
2023-04-02T21:42:20.191Z,14.46
2023-04-02T21:44:48.092Z,14.58
2023-04-02T21:47:16.020Z,14.79
2023-04-02T21:49:43.963Z,14.86
2023-04-02T21:52:12.319Z,15.23
2023-04-02T21:54:40.572Z,15.01
2023-04-02T21:57:08.765Z,14.64
2023-04-02T21:59:36.973Z,14.44
2023-04-02T22:02:05.161Z,14.32
2023-04-02T22:04:33.589Z,14.48
2023-04-02T22:07:01.480Z,14.50
2023-04-02T22:09:29.684Z,14.68
2023-04-02T22:11:59.674Z,14.40
2023-04-02T22:17:17.442Z,14.28
2023-04-02T22:19:45.446Z,14.26
2023-04-02T22:22:13.082Z,14.21
2023-04-02T22:24:40.879Z,14.31
2023-04-02T22:27:08.333Z,14.34
2023-04-02T22:29:36.092Z,14.42
2023-04-02T22:32:03.557Z,14.29
2023-04-02T22:34:31.170Z,14.23
2023-04-02T22:36:58.657Z,13.96
2023-04-02T22:39:26.437Z,14.02
2023-04-02T22:41:54.187Z,13.85
2023-04-02T22:44:21.777Z,13.63
2023-04-02T22:46:49.393Z,13.40
2023-04-02T22:49:19.577Z,13.44
2023-04-02T22:54:32.724Z,13.39
2023-04-02T22:57:00.587Z,13.41
2023-04-02T22:59:28.108Z,13.37
2023-04-02T23:01:55.740Z,13.42
2023-04-02T23:04:23.241Z,13.64
2023-04-02T23:06:51.558Z,13.69
2023-04-02T23:09:19.214Z,13.42
2023-04-02T23:11:46.816Z,13.31
2023-04-02T23:14:14.305Z,13.36
2023-04-02T23:16:41.820Z,13.46
2023-04-02T23:19:27.927Z,13.64
2023-04-02T23:22:13.944Z,13.98
2023-04-02T23:24:41.671Z,13.93
2023-04-02T23:27:09.184Z,13.62
2023-04-02T23:29:36.810Z,13.73
2023-04-02T23:32:07.118Z,13.79
2023-04-02T23:34:34.672Z,13.63
2023-04-02T23:37:02.146Z,13.16
2023-04-02T23:39:29.791Z,13.29
2023-04-02T23:41:59.048Z,13.40
2023-04-02T23:44:26.901Z,13.47
2023-04-02T23:46:54.654Z,13.66
2023-04-02T23:50:52.733Z,13.64
2023-04-02T23:53:27.355Z,13.54
2023-04-02T23:55:55.745Z,13.53
2023-04-02T23:58:23.318Z,13.63
